Time;durP1;ratioP1;P1;durP2;ratioP2;P2;SDS_P1;SDS_P2;PMS_P1;PMS_P2;Temp;Humidity;BMP_temperature;BMP_pressure;BME280_temperature;BME280_humidity;BME280_pressure;Samples;Min_cycle;Max_cycle;Signal;HPM_P1;HPM_P2
2022/06/21 00:01:25;;;;;;;;;;;;;;;;;;4814116;29;19994;-86
2022/06/21 00:03:52;;;;;;;;;;;;;;;;;;4827408;29;20873;-86
2022/06/21 00:06:19;;;;;;;;;;;;;;;;;;4837191;29;19951;-86
2022/06/21 00:08:45;;;;;;;;;;;;;;;;;;4834266;29;20454;-85
2022/06/21 00:11:13;;;;;;;;;;;;;;;;;;4826620;29;19972;-85
2022/06/21 00:13:40;;;;;;;;;;;;;;;;;;4824404;29;20276;-86
2022/06/21 00:16:07;;;;;;;;;;;;;;;;;;4825018;29;19988;-86
2022/06/21 00:18:34;;;;;;;;;;;;;;;;;;4824421;29;19935;-86
2022/06/21 00:21:01;;;;;;;;;;;;;;;;;;4827462;29;20022;-86
2022/06/21 00:23:29;;;;;;;;;;;;;;;;;;4821395;29;21229;-85
2022/06/21 00:25:56;;;;;;;;;;;;;;;;;;4822860;29;19975;-86
2022/06/21 00:28:23;;;;;;;;;;;;;;;;;;4829979;29;19940;-86
2022/06/21 00:30:49;;;;;;;;;;;;;;;;;;4824903;29;19943;-86
2022/06/21 00:33:16;;;;;;;;;;;;;;;;;;4826561;29;20564;-86
2022/06/21 00:35:44;;;;;;;;;;;;;;;;;;4828222;29;19972;-86
2022/06/21 00:38:11;;;;;;;;;;;;;;;;;;4830053;29;19936;-86
2022/06/21 00:40:38;;;;;;;;;;;;;;;;;;4822329;29;19972;-85
2022/06/21 00:43:05;;;;;;;;;;;;;;;;;;4807017;29;19963;-85
2022/06/21 00:45:32;;;;;;;;;;;;;;;;;;4812476;29;23346;-86
2022/06/21 00:47:59;;;;;;;;;;;;;;;;;;4824813;29;19936;-86
2022/06/21 00:50:27;;;;;;;;;;;;;;;;;;4813800;29;20015;-86
2022/06/21 00:52:54;;;;;;;;;;;;;;;;;;4821563;29;19943;-86
2022/06/21 00:55:24;;;;;;;;;;;;;;;;;;4823945;29;19976;-86
2022/06/21 00:57:51;;;;;;;;;;;;;;;;;;4818903;29;19940;-85
2022/06/21 01:00:19;;;;;;;;;;;;;;;;;;4823742;29;20023;-86
2022/06/21 01:02:48;;;;;;;;;;;;;;;;;;4807246;29;20322;-86
2022/06/21 01:05:15;;;;;;;;;;;;;;;;;;4831535;29;19932;-86
2022/06/21 01:07:43;;;;;;;;;;;;;;;;;;4826758;29;19940;-86
2022/06/21 01:10:11;;;;;;;;;;;;;;;;;;4825613;29;19928;-86
2022/06/21 01:12:38;;;;;;;;;;;;;;;;;;4820375;29;19936;-85
2022/06/21 01:15:05;;;;;;;;;;;;;;;;;;4811658;29;20344;-84
2022/06/21 01:17:31;;;;;;;;;;;;;;;;;;4804998;29;19951;-86
2022/06/21 01:19:58;;;;;;;;;;;;;;;;;;4823782;29;19936;-85
2022/06/21 01:22:25;;;;;;;;;;;;;;;;;;4829888;29;19924;-85
2022/06/21 01:24:52;;;;;;;;;;;;;;;;;;4825625;29;22863;-85
2022/06/21 01:27:19;;;;;;;;;;;;;;;;;;4826781;29;19932;-85
2022/06/21 01:29:47;;;;;;;;;;;;;;;;;;4819586;29;19929;-86
2022/06/21 01:32:14;;;;;;;;;;;;;;;;;;4828023;29;19928;-85
2022/06/21 01:34:41;;;;;;;;;;;;;;;;;;4825963;29;19936;-85
2022/06/21 01:37:08;;;;;;;;;;;;;;;;;;4829125;29;20026;-85
2022/06/21 01:39:35;;;;;;;;;;;;;;;;;;4823067;29;20034;-86
2022/06/21 01:42:02;;;;;;;;;;;;;;;;;;4827197;29;19928;-85
2022/06/21 01:44:29;;;;;;;;;;;;;;;;;;4827473;29;19975;-86
2022/06/21 01:46:57;;;;;;;;;;;;;;;;;;4820552;29;20010;-85
2022/06/21 01:49:24;;;;;;;;;;;;;;;;;;4825430;29;19971;-85
2022/06/21 01:51:51;;;;;;;;;;;;;;;;;;4818642;29;19932;-85
2022/06/21 01:54:19;;;;;;;;;;;;;;;;;;4824263;29;19939;-85
2022/06/21 01:56:46;;;;;;;;;;;;;;;;;;4816176;29;20074;-85
2022/06/21 01:59:13;;;;;;;;;;;;;;;;;;4823864;29;19956;-85
2022/06/21 02:01:40;;;;;;;;;;;;;;;;;;4820931;29;19932;-86
2022/06/21 02:04:07;;;;;;;;;;;;;;;;;;4827486;29;19939;-85
2022/06/21 02:06:34;;;;;;;;;;;;;;;;;;4816860;29;19957;-86
2022/06/21 02:09:01;;;;;;;;;;;;;;;;;;4827991;29;19976;-85
2022/06/21 02:11:28;;;;;;;;;;;;;;;;;;4823638;29;20467;-85
2022/06/21 02:16:44;;;;;;;;;;;;;;;;;;4824043;29;20004;-86
2022/06/21 02:19:12;;;;;;;;;;;;;;;;;;4825797;29;20542;-85
2022/06/21 02:21:40;;;;;;;;;;;;;;;;;;4821112;29;19971;-85
2022/06/21 02:24:08;;;;;;;;;;;;;;;;;;4829292;29;20413;-85
2022/06/21 02:26:35;;;;;;;;;;;;;;;;;;4829289;29;19939;-85
2022/06/21 02:29:02;;;;;;;;;;;;;;;;;;4827890;29;19982;-85
2022/06/21 02:31:30;;;;;;;;;;;;;;;;;;4828528;29;20394;-86
2022/06/21 02:33:57;;;;;;;;;;;;;;;;;;4808715;29;19924;-85
2022/06/21 02:36:23;;;;;;;;;;;;;;;;;;4834068;29;19932;-86
2022/06/21 02:38:49;;;;;;;;;;;;;;;;;;4830914;29;19943;-85
2022/06/21 02:41:15;;;;;;;;;;;;;;;;;;4829612;29;19971;-86
2022/06/21 02:43:41;;;;;;;;;;;;;;;;;;4810434;29;19932;-86
2022/06/21 02:46:08;;;;;;;;;;;;;;;;;;4829310;29;20406;-85
2022/06/21 02:48:34;;;;;;;;;;;;;;;;;;4823542;29;20394;-86
2022/06/21 02:51:01;;;;;;;;;;;;;;;;;;4825056;29;19965;-86
2022/06/21 02:53:27;;;;;;;;;;;;;;;;;;4826950;29;20308;-86
2022/06/21 02:55:53;;;;;;;;;;;;;;;;;;4820891;29;20930;-85
2022/06/21 02:58:19;;;;;;;;;;;;;;;;;;4815456;29;20027;-85
2022/06/21 03:00:44;;;;;;;;;;;;;;;;;;4810185;29;20336;-85
2022/06/21 03:03:11;;;;;;;;;;;;;;;;;;4811572;29;19927;-85
2022/06/21 03:05:37;;;;;;;;;;;;;;;;;;4824779;29;19932;-85
2022/06/21 03:08:03;;;;;;;;;;;;;;;;;;4816678;29;19935;-85
2022/06/21 03:10:29;;;;;;;;;;;;;;;;;;4815866;29;19939;-85
2022/06/21 03:12:55;;;;;;;;;;;;;;;;;;4830019;29;19932;-85
2022/06/21 03:15:21;;;;;;;;;;;;;;;;;;4837022;29;19932;-85
2022/06/21 03:17:47;;;;;;;;;;;;;;;;;;4810562;29;20412;-86
2022/06/21 03:20:13;;;;;;;;;;;;;;;;;;4834299;29;20362;-85
2022/06/21 03:22:39;;;;;;;;;;;;;;;;;;4832860;29;19988;-85
2022/06/21 03:25:05;;;;;;;;;;;;;;;;;;4834903;29;19924;-86
2022/06/21 03:27:31;;;;;;;;;;;;;;;;;;4814667;29;20391;-85
2022/06/21 03:29:57;;;;;;;;;;;;;;;;;;4827735;29;19933;-85
2022/06/21 03:32:23;;;;;;;;;;;;;;;;;;4814419;29;20677;-84
2022/06/21 03:34:50;;;;;;;;;;;;;;;;;;4810002;29;19928;-85
2022/06/21 03:37:16;;;;;;;;;;;;;;;;;;4843708;29;20307;-85
2022/06/21 03:42:27;;;;;;;;;;;;;;;;;;4828021;29;19928;-86
2022/06/21 03:44:54;;;;;;;;;;;;;;;;;;4845078;29;20601;-86
2022/06/21 03:47:20;;;;;;;;;;;;;;;;;;4827017;29;19973;-86
2022/06/21 03:49:46;;;;;;;;;;;;;;;;;;4820733;29;19932;-85
2022/06/21 03:52:12;;;;;;;;;;;;;;;;;;4829775;29;19971;-85
2022/06/21 03:54:38;;;;;;;;;;;;;;;;;;4822149;29;20012;-85
2022/06/21 03:57:03;;;;;;;;;;;;;;;;;;4823989;29;19980;-85
2022/06/21 03:59:29;;;;;;;;;;;;;;;;;;4829263;29;19932;-85
2022/06/21 04:01:55;;;;;;;;;;;;;;;;;;4817889;29;19924;-86
2022/06/21 04:04:21;;;;;;;;;;;;;;;;;;4810695;29;19975;-85
2022/06/21 04:06:47;;;;;;;;;;;;;;;;;;4822014;29;19940;-85
2022/06/21 04:09:13;;;;;;;;;;;;;;;;;;4811898;29;19944;-85
2022/06/21 04:11:39;;;;;;;;;;;;;;;;;;4829665;29;19932;-85
2022/06/21 04:14:05;;;;;;;;;;;;;;;;;;4834386;29;20003;-85
2022/06/21 04:16:32;;;;;;;;;;;;;;;;;;4832462;29;19928;-85
2022/06/21 04:18:58;;;;;;;;;;;;;;;;;;4824806;29;21316;-86
2022/06/21 04:21:23;;;;;;;;;;;;;;;;;;4810514;29;19936;-85
2022/06/21 04:23:49;;;;;;;;;;;;;;;;;;4824378;29;19932;-85
2022/06/21 04:26:16;;;;;;;;;;;;;;;;;;4827948;29;19928;-85
2022/06/21 04:28:42;;;;;;;;;;;;;;;;;;4817485;29;19932;-86
2022/06/21 04:31:08;;;;;;;;;;;;;;;;;;4827932;29;20086;-85
2022/06/21 04:33:33;;;;;;;;;;;;;;;;;;4820698;29;21505;-86
2022/06/21 04:35:59;;;;;;;;;;;;;;;;;;4805839;29;19924;-85
2022/06/21 04:38:25;;;;;;;;;;;;;;;;;;4810135;29;19940;-85
2022/06/21 04:40:51;;;;;;;;;;;;;;;;;;4821498;29;21142;-85
2022/06/21 04:43:17;;;;;;;;;;;;;;;;;;4833361;29;19940;-86
2022/06/21 04:45:43;;;;;;;;;;;;;;;;;;4833073;29;19967;-86
2022/06/21 04:48:09;;;;;;;;;;;;;;;;;;4830012;29;19992;-85
2022/06/21 04:50:35;;;;;;;;;;;;;;;;;;4824204;29;19939;-86
2022/06/21 04:53:01;;;;;;;;;;;;;;;;;;4827107;29;19928;-86
2022/06/21 04:55:27;;;;;;;;;;;;;;;;;;4826982;29;19980;-86
2022/06/21 04:57:53;;;;;;;;;;;;;;;;;;4840739;29;19978;-86
2022/06/21 05:00:19;;;;;;;;;;;;;;;;;;4826561;29;20360;-86
2022/06/21 05:02:46;;;;;;;;;;;;;;;;;;4817029;29;20577;-86
2022/06/21 05:05:12;;;;;;;;;;;;;;;;;;4822720;29;20387;-86
2022/06/21 05:07:38;;;;;;;;;;;;;;;;;;4820491;29;19979;-87
2022/06/21 05:10:04;;;;;;;;;;;;;;;;;;4826744;29;20440;-86
2022/06/21 05:12:33;;;;;;;;;;;;;;;;;;4830054;29;20296;-86
2022/06/21 05:14:59;;;;;;;;;;;;;;;;;;4825234;29;19928;-86
2022/06/21 05:17:25;;;;;;;;;;;;;;;;;;4836061;29;20403;-85
2022/06/21 05:19:51;;;;;;;;;;;;;;;;;;4813970;29;19932;-85
2022/06/21 05:22:17;;;;;;;;;;;;;;;;;;4837556;29;19975;-86
2022/06/21 05:24:43;;;;;;;;;;;;;;;;;;4829402;29;19928;-86
2022/06/21 05:27:09;;;;;;;;;;;;;;;;;;4834694;29;19936;-86
2022/06/21 05:29:35;;;;;;;;;;;;;;;;;;4825442;29;19935;-85
2022/06/21 05:32:01;;;;;;;;;;;;;;;;;;4837321;29;19967;-86
2022/06/21 05:34:27;;;;;;;;;;;;;;;;;;4834847;29;19928;-86
2022/06/21 05:36:53;;;;;;;;;;;;;;;;;;4832776;29;21263;-86
2022/06/21 05:39:22;;;;;;;;;;;;;;;;;;4833061;29;19936;-86
2022/06/21 05:41:48;;;;;;;;;;;;;;;;;;4847290;29;19931;-86
2022/06/21 05:44:14;;;;;;;;;;;;;;;;;;4839839;29;19932;-86
2022/06/21 05:46:41;;;;;;;;;;;;;;;;;;4822770;29;19932;-86
2022/06/21 05:49:10;;;;;;;;;;;;;;;;;;4819696;29;19925;-86
2022/06/21 05:51:36;;;;;;;;;;;;;;;;;;4833701;29;19974;-86
2022/06/21 05:54:02;;;;;;;;;;;;;;;;;;4838040;29;19976;-86
2022/06/21 05:56:29;;;;;;;;;;;;;;;;;;4831825;29;19956;-85
2022/06/21 05:58:55;;;;;;;;;;;;;;;;;;4823575;29;19928;-86
2022/06/21 06:01:21;;;;;;;;;;;;;;;;;;4837947;29;20272;-86
2022/06/21 06:03:47;;;;;;;;;;;;;;;;;;4828713;29;20932;-85
2022/06/21 06:06:13;;;;;;;;;;;;;;;;;;4829211;29;20430;-86
2022/06/21 06:08:39;;;;;;;;;;;;;;;;;;4827074;29;19983;-86
2022/06/21 06:11:05;;;;;;;;;;;;;;;;;;4817395;29;20360;-86
2022/06/21 06:13:31;;;;;;;;;;;;;;;;;;4841407;29;20367;-86
2022/06/21 06:15:57;;;;;;;;;;;;;;;;;;4839111;29;19928;-86
2022/06/21 06:18:23;;;;;;;;;;;;;;;;;;4836270;29;19936;-86
2022/06/21 06:20:49;;;;;;;;;;;;;;;;;;4819342;29;20647;-86
2022/06/21 06:23:15;;;;;;;;;;;;;;;;;;4835181;29;19924;-86
2022/06/21 06:25:41;;;;;;;;;;;;;;;;;;4814065;29;19984;-87
2022/06/21 06:28:08;;;;;;;;;;;;;;;;;;4838088;29;20406;-86
2022/06/21 06:30:34;;;;;;;;;;;;;;;;;;4832761;29;19927;-86
2022/06/21 06:33:00;;;;;;;;;;;;;;;;;;4821193;29;19938;-86
2022/06/21 06:35:26;;;;;;;;;;;;;;;;;;4834427;29;19933;-86
2022/06/21 06:37:52;;;;;;;;;;;;;;;;;;4829669;29;19959;-85
2022/06/21 06:40:18;;;;;;;;;;;;;;;;;;4820341;29;19924;-86
2022/06/21 06:42:44;;;;;;;;;;;;;;;;;;4834500;29;19925;-85
2022/06/21 06:45:10;;;;;;;;;;;;;;;;;;4842605;29;20056;-85
2022/06/21 06:47:36;;;;;;;;;;;;;;;;;;4821064;29;19967;-86
2022/06/21 06:50:02;;;;;;;;;;;;;;;;;;4834059;29;19928;-86
2022/06/21 06:52:28;;;;;;;;;;;;;;;;;;4821084;29;19928;-85
2022/06/21 06:54:54;;;;;;;;;;;;;;;;;;4828955;29;20070;-86
2022/06/21 06:57:20;;;;;;;;;;;;;;;;;;4836262;29;20369;-86
2022/06/21 06:59:46;;;;;;;;;;;;;;;;;;4816266;29;19928;-86
2022/06/21 07:02:12;;;;;;;;;;;;;;;;;;4821771;29;19930;-86
2022/06/21 07:04:38;;;;;;;;;;;;;;;;;;4836323;29;19928;-86
2022/06/21 07:07:04;;;;;;;;;;;;;;;;;;4838608;29;19943;-86
2022/06/21 07:09:30;;;;;;;;;;;;;;;;;;4838428;29;20423;-86
2022/06/21 07:11:56;;;;;;;;;;;;;;;;;;4832705;29;19967;-86
2022/06/21 07:14:22;;;;;;;;;;;;;;;;;;4847772;29;19967;-86
2022/06/21 07:16:48;;;;;;;;;;;;;;;;;;4844859;29;20400;-86
2022/06/21 07:19:15;;;;;;;;;;;;;;;;;;4839443;29;19987;-86
2022/06/21 07:21:41;;;;;;;;;;;;;;;;;;4822222;29;19935;-86
2022/06/21 07:24:07;;;;;;;;;;;;;;;;;;4847114;29;19932;-86
2022/06/21 07:26:33;;;;;;;;;;;;;;;;;;4822871;29;20423;-86
2022/06/21 07:28:59;;;;;;;;;;;;;;;;;;4826682;29;20261;-86
2022/06/21 07:31:25;;;;;;;;;;;;;;;;;;4842381;29;19963;-86
2022/06/21 07:33:51;;;;;;;;;;;;;;;;;;4822155;29;19932;-86
2022/06/21 07:36:18;;;;;;;;;;;;;;;;;;4841322;29;19953;-86
2022/06/21 07:38:46;;;;;;;;;;;;;;;;;;4833337;29;20384;-86
2022/06/21 07:41:12;;;;;;;;;;;;;;;;;;4821515;29;19932;-86
2022/06/21 07:43:38;;;;;;;;;;;;;;;;;;4824182;29;19928;-86
2022/06/21 07:46:05;;;;;;;;;;;;;;;;;;4843895;29;19932;-85
2022/06/21 07:48:32;;;;;;;;;;;;;;;;;;4840592;29;19976;-86
2022/06/21 07:50:58;;;;;;;;;;;;;;;;;;4836211;29;20287;-86
2022/06/21 07:53:24;;;;;;;;;;;;;;;;;;4836778;29;19972;-86
2022/06/21 07:55:50;;;;;;;;;;;;;;;;;;4833056;29;19938;-86
2022/06/21 07:58:16;;;;;;;;;;;;;;;;;;4837800;29;19928;-86
2022/06/21 08:08:56;;;;;;;;;;;;;;;;;;4834179;29;19939;-86
2022/06/21 08:11:22;;;;;;;;;;;;;;;;;;4835116;29;19932;-86
2022/06/21 08:13:49;;;;;;;;;;;;;;;;;;4836546;29;19924;-86
2022/06/21 08:16:15;;;;;;;;;;;;;;;;;;4842240;29;20232;-86
2022/06/21 08:18:40;;;;;;;;;;;;;;;;;;4820024;29;19936;-86
2022/06/21 08:21:06;;;;;;;;;;;;;;;;;;4837646;29;20098;-86
2022/06/21 08:23:32;;;;;;;;;;;;;;;;;;4833659;29;20019;-86
2022/06/21 08:25:58;;;;;;;;;;;;;;;;;;4842967;29;19924;-86
2022/06/21 08:28:24;;;;;;;;;;;;;;;;;;4837329;29;20285;-86
2022/06/21 08:30:50;;;;;;;;;;;;;;;;;;4832223;29;20083;-86
2022/06/21 08:33:16;;;;;;;;;;;;;;;;;;4838122;29;19964;-85
2022/06/21 08:35:42;;;;;;;;;;;;;;;;;;4833450;29;19932;-86
2022/06/21 08:38:08;;;;;;;;;;;;;;;;;;4837240;29;19955;-86
2022/06/21 08:40:34;;;;;;;;;;;;;;;;;;4820315;29;19967;-86
2022/06/21 08:43:00;;;;;;;;;;;;;;;;;;4820586;29;19979;-86
2022/06/21 08:45:41;;;;;;;;;;;;;;;;;;4829211;29;19931;-86
2022/06/21 08:48:07;;;;;;;;;;;;;;;;;;4842255;29;19924;-86
2022/06/21 08:50:33;;;;;;;;;;;;;;;;;;4835707;29;20482;-86
2022/06/21 08:52:59;;;;;;;;;;;;;;;;;;4838248;29;20361;-86
2022/06/21 08:55:25;;;;;;;;;;;;;;;;;;4837119;29;19932;-86
2022/06/21 08:57:51;;;;;;;;;;;;;;;;;;4836333;29;20042;-86
2022/06/21 09:00:17;;;;;;;;;;;;;;;;;;4837450;29;19936;-86
2022/06/21 09:02:43;;;;;;;;;;;;;;;;;;4832562;29;19976;-87
2022/06/21 09:05:09;;;;;;;;;;;;;;;;;;4835880;29;19935;-86
2022/06/21 09:07:35;;;;;;;;;;;;;;;;;;4831509;29;19933;-86
2022/06/21 09:10:01;;;;;;;;;;;;;;;;;;4836649;29;19928;-87
2022/06/21 09:12:27;;;;;;;;;;;;;;;;;;4821993;29;20011;-86
2022/06/21 09:14:52;;;;;;;;;;;;;;;;;;4838430;29;19979;-87
2022/06/21 09:17:18;;;;;;;;;;;;;;;;;;4846474;29;19924;-87
2022/06/21 09:19:44;;;;;;;;;;;;;;;;;;4830578;29;19928;-87
2022/06/21 09:22:11;;;;;;;;;;;;;;;;;;4836676;29;19928;-86
2022/06/21 09:24:39;;;;;;;;;;;;;;;;;;4832877;29;21597;-87
2022/06/21 09:27:05;;;;;;;;;;;;;;;;;;4838598;29;19938;-86
2022/06/21 09:29:31;;;;;;;;;;;;;;;;;;4836748;29;19932;-87
2022/06/21 09:31:57;;;;;;;;;;;;;;;;;;4831724;29;19931;-86
2022/06/21 09:34:23;;;;;;;;;;;;;;;;;;4835853;29;19932;-87
2022/06/21 09:36:49;;;;;;;;;;;;;;;;;;4832806;29;19932;-86
2022/06/21 09:39:15;;;;;;;;;;;;;;;;;;4833617;29;19931;-87
2022/06/21 09:41:41;;;;;;;;;;;;;;;;;;4834190;29;19928;-87
2022/06/21 09:44:07;;;;;;;;;;;;;;;;;;4838082;29;19946;-87
2022/06/21 09:46:33;;;;;;;;;;;;;;;;;;4838117;29;19935;-87
2022/06/21 09:48:59;;;;;;;;;;;;;;;;;;4836021;29;19932;-87
2022/06/21 09:51:25;;;;;;;;;;;;;;;;;;4838026;29;19928;-87
2022/06/21 09:53:51;;;;;;;;;;;;;;;;;;4836151;29;20967;-87
2022/06/21 09:56:17;;;;;;;;;;;;;;;;;;4837502;29;19939;-86
2022/06/21 09:58:43;;;;;;;;;;;;;;;;;;4835713;29;19936;-87
2022/06/21 10:01:09;;;;;;;;;;;;;;;;;;4825265;29;19932;-87
2022/06/21 10:03:35;;;;;;;;;;;;;;;;;;4831101;29;19931;-86
2022/06/21 10:06:01;;;;;;;;;;;;;;;;;;4838120;29;20023;-87
2022/06/21 10:08:27;;;;;;;;;;;;;;;;;;4827663;29;19928;-87
2022/06/21 10:10:53;;;;;;;;;;;;;;;;;;4824729;29;20758;-87
2022/06/21 10:13:19;;;;;;;;;;;;;;;;;;4824356;29;19932;-87
2022/06/21 10:15:47;;;;;;;;;;;;;;;;;;4839270;29;20002;-87
2022/06/21 10:18:13;;;;;;;;;;;;;;;;;;4845018;29;19988;-87
2022/06/21 10:20:40;;;;;;;;;;;;;;;;;;4821622;29;19936;-87
2022/06/21 10:23:06;;;;;;;;;;;;;;;;;;4841034;29;19924;-87
2022/06/21 10:25:32;;;;;;;;;;;;;;;;;;4820497;29;19955;-87
2022/06/21 10:27:58;;;;;;;;;;;;;;;;;;4831297;29;19933;-87
2022/06/21 10:30:25;;;;;;;;;;;;;;;;;;4841385;29;19928;-87
2022/06/21 10:32:51;;;;;;;;;;;;;;;;;;4855322;29;22616;-87
2022/06/21 10:35:17;;;;;;;;;;;;;;;;;;4841507;29;19939;-87
2022/06/21 10:37:43;;;;;;;;;;;;;;;;;;4840054;29;20395;-88
2022/06/21 10:40:09;;;;;;;;;;;;;;;;;;4831917;29;20423;-88
2022/06/21 10:42:47;;;;;;;;;;;;;;;;;;4841935;29;20339;-87
2022/06/21 10:45:13;;;;;;;;;;;;;;;;;;4845601;29;19928;-88
2022/06/21 10:47:39;;;;;;;;;;;;;;;;;;4843957;29;19935;-88
2022/06/21 10:50:05;;;;;;;;;;;;;;;;;;4846858;29;19924;-88
2022/06/21 10:52:31;;;;;;;;;;;;;;;;;;4842341;29;20377;-88
2022/06/21 10:54:57;;;;;;;;;;;;;;;;;;4837870;29;19986;-88
2022/06/21 10:57:23;;;;;;;;;;;;;;;;;;4826529;29;19943;-88
2022/06/21 11:02:33;;;;;;;;;;;;;;;;;;4842411;29;20410;-87
2022/06/21 11:04:59;;;;;;;;;;;;;;;;;;4846686;29;20033;-88
2022/06/21 11:07:25;;;;;;;;;;;;;;;;;;4832474;29;19928;-88
2022/06/21 11:09:51;;;;;;;;;;;;;;;;;;4837709;29;20704;-88
2022/06/21 11:15:02;;;;;;;;;;;;;;;;;;4843747;29;20059;-88
2022/06/21 11:17:28;;;;;;;;;;;;;;;;;;4830489;29;19927;-88
2022/06/21 11:19:54;;;;;;;;;;;;;;;;;;4836389;29;19940;-88
2022/06/21 11:22:20;;;;;;;;;;;;;;;;;;4844039;29;19931;-88
2022/06/21 11:24:46;;;;;;;;;;;;;;;;;;4836598;29;19929;-88
2022/06/21 11:27:13;;;;;;;;;;;;;;;;;;4831142;29;19924;-88
2022/06/21 11:29:39;;;;;;;;;;;;;;;;;;4840242;29;19986;-88
2022/06/21 11:32:05;;;;;;;;;;;;;;;;;;4845473;29;20752;-88
2022/06/21 11:34:31;;;;;;;;;;;;;;;;;;4845408;29;19932;-88
2022/06/21 11:36:57;;;;;;;;;;;;;;;;;;4846199;29;19929;-89
2022/06/21 11:39:24;;;;;;;;;;;;;;;;;;4841782;29;19932;-88
2022/06/21 11:42:05;;;;;;;;;;;;;;;;;;4842101;29;19924;-88
2022/06/21 11:44:31;;;;;;;;;;;;;;;;;;4846219;29;20398;-87
2022/06/21 11:46:57;;;;;;;;;;;;;;;;;;4843263;29;20027;-88
2022/06/21 11:49:23;;;;;;;;;;;;;;;;;;4826370;29;19924;-88
2022/06/21 11:51:49;;;;;;;;;;;;;;;;;;4830750;29;20011;-88
2022/06/21 11:54:15;;;;;;;;;;;;;;;;;;4827615;29;19933;-88
2022/06/21 11:56:41;;;;;;;;;;;;;;;;;;4828723;29;19924;-89
2022/06/21 11:59:07;;;;;;;;;;;;;;;;;;4842064;29;19929;-88
2022/06/21 12:01:33;;;;;;;;;;;;;;;;;;4841960;29;19939;-88
2022/06/21 12:03:59;;;;;;;;;;;;;;;;;;4844748;29;19928;-89
2022/06/21 12:06:29;;;;;;;;;;;;;;;;;;4847340;29;19931;-88
2022/06/21 12:08:55;;;;;;;;;;;;;;;;;;4838556;29;19924;-88
2022/06/21 12:11:21;;;;;;;;;;;;;;;;;;4852652;29;20486;-88
2022/06/21 12:13:48;;;;;;;;;;;;;;;;;;4843127;29;19931;-89
2022/06/21 12:16:16;;;;;;;;;;;;;;;;;;4844922;29;19932;-89
2022/06/21 12:18:42;;;;;;;;;;;;;;;;;;4836160;29;19929;-89
2022/06/21 12:21:08;;;;;;;;;;;;;;;;;;4843496;29;19932;-88
2022/06/21 12:23:35;;;;;;;;;;;;;;;;;;4840744;29;19936;-88
2022/06/21 12:26:01;;;;;;;;;;;;;;;;;;4832215;29;19935;-89
2022/06/21 12:28:26;;;;;;;;;;;;;;;;;;4846667;29;19924;-89
2022/06/21 12:30:52;;;;;;;;;;;;;;;;;;4844096;29;19932;-89
2022/06/21 12:33:18;;;;;;;;;;;;;;;;;;4830434;29;20015;-89
2022/06/21 12:35:44;;;;;;;;;;;;;;;;;;4835857;29;20400;-89
2022/06/21 12:38:10;;;;;;;;;;;;;;;;;;4835302;29;20058;-89
2022/06/21 12:40:36;;;;;;;;;;;;;;;;;;4837875;29;20003;-88
2022/06/21 12:43:02;;;;;;;;;;;;;;;;;;4841253;29;19933;-88
2022/06/21 12:45:29;;;;;;;;;;;;;;;;;;4838086;29;20265;-89
2022/06/21 12:47:55;;;;;;;;;;;;;;;;;;4816936;29;19975;-88
2022/06/21 12:50:21;;;;;;;;;;;;;;;;;;4835759;29;20044;-88
2022/06/21 12:52:47;;;;;;;;;;;;;;;;;;4830235;29;19932;-88
2022/06/21 12:55:13;;;;;;;;;;;;;;;;;;4834195;29;20411;-88
2022/06/21 12:57:39;;;;;;;;;;;;;;;;;;4829358;29;20027;-88
2022/06/21 13:00:05;;;;;;;;;;;;;;;;;;4830370;29;19943;-88
2022/06/21 13:02:31;;;;;;;;;;;;;;;;;;4826924;29;19936;-89
2022/06/21 13:04:57;;;;;;;;;;;;;;;;;;4823639;29;19924;-88
2022/06/21 13:07:23;;;;;;;;;;;;;;;;;;4837029;29;19947;-89
2022/06/21 13:09:49;;;;;;;;;;;;;;;;;;4832363;29;19939;-88
2022/06/21 13:12:15;;;;;;;;;;;;;;;;;;4839278;29;19912;-90
2022/06/21 13:14:41;;;;;;;;;;;;;;;;;;4839608;29;19931;-89
2022/06/21 13:17:07;;;;;;;;;;;;;;;;;;4835195;29;20003;-88
2022/06/21 13:19:33;;;;;;;;;;;;;;;;;;4831914;29;19936;-89
2022/06/21 13:22:00;;;;;;;;;;;;;;;;;;4835351;29;19975;-88
2022/06/21 13:24:26;;;;;;;;;;;;;;;;;;4838009;29;19992;-89
2022/06/21 13:26:53;;;;;;;;;;;;;;;;;;4825978;29;19936;-88
2022/06/21 13:29:20;;;;;;;;;;;;;;;;;;4839123;29;19944;-89
2022/06/21 13:31:46;;;;;;;;;;;;;;;;;;4832374;29;20041;-88
2022/06/21 13:34:12;;;;;;;;;;;;;;;;;;4833008;29;20035;-88
2022/06/21 13:36:38;;;;;;;;;;;;;;;;;;4835658;29;19994;-88
2022/06/21 13:39:04;;;;;;;;;;;;;;;;;;4837699;29;19932;-88
2022/06/21 13:44:16;;;;;;;;;;;;;;;;;;4837476;29;19939;-89
2022/06/21 13:46:42;;;;;;;;;;;;;;;;;;4833079;29;19924;-88
2022/06/21 13:49:08;;;;;;;;;;;;;;;;;;4834617;29;19928;-87
2022/06/21 13:51:34;;;;;;;;;;;;;;;;;;4824558;29;19932;-88
2022/06/21 13:53:59;;;;;;;;;;;;;;;;;;4832888;29;19932;-87
2022/06/21 13:56:25;;;;;;;;;;;;;;;;;;4833582;29;20718;-87
2022/06/21 13:58:51;;;;;;;;;;;;;;;;;;4826086;29;20772;-87
2022/06/21 14:01:20;;;;;;;;;;;;;;;;;;4829566;29;20452;-87
2022/06/21 14:03:46;;;;;;;;;;;;;;;;;;4845713;29;19984;-88
2022/06/21 14:06:13;;;;;;;;;;;;;;;;;;4840841;29;19932;-88
2022/06/21 14:08:40;;;;;;;;;;;;;;;;;;4821690;29;19927;-88
2022/06/21 14:11:06;;;;;;;;;;;;;;;;;;4837596;29;19924;-88
2022/06/21 14:13:32;;;;;;;;;;;;;;;;;;4838393;29;19939;-88
2022/06/21 14:15:58;;;;;;;;;;;;;;;;;;4842055;29;19975;-88
2022/06/21 14:18:24;;;;;;;;;;;;;;;;;;4840067;29;19928;-88
2022/06/21 14:20:50;;;;;;;;;;;;;;;;;;4839152;29;19939;-88
2022/06/21 14:23:16;;;;;;;;;;;;;;;;;;4843232;29;19975;-88
2022/06/21 14:25:42;;;;;;;;;;;;;;;;;;4835760;29;19963;-88
2022/06/21 14:28:08;;;;;;;;;;;;;;;;;;4842326;29;20313;-88
2022/06/21 14:30:34;;;;;;;;;;;;;;;;;;4838128;29;20364;-88
2022/06/21 14:33:01;;;;;;;;;;;;;;;;;;4842063;29;19936;-88
2022/06/21 14:35:27;;;;;;;;;;;;;;;;;;4842166;29;19928;-88
2022/06/21 14:37:54;;;;;;;;;;;;;;;;;;4839250;29;20605;-88
2022/06/21 14:40:20;;;;;;;;;;;;;;;;;;4838419;29;20139;-88
2022/06/21 14:42:46;;;;;;;;;;;;;;;;;;4838585;29;20047;-88
2022/06/21 14:45:12;;;;;;;;;;;;;;;;;;4844941;29;19963;-88
2022/06/21 14:47:38;;;;;;;;;;;;;;;;;;4838251;29;19927;-88
2022/06/21 14:50:04;;;;;;;;;;;;;;;;;;4840023;29;20033;-88
2022/06/21 14:52:30;;;;;;;;;;;;;;;;;;4839585;29;19977;-88
2022/06/21 14:54:59;;;;;;;;;;;;;;;;;;4836380;29;20072;-88
2022/06/21 14:57:26;;;;;;;;;;;;;;;;;;4842931;29;20062;-88
2022/06/21 14:59:54;;;;;;;;;;;;;;;;;;4822530;29;20003;-85
2022/06/21 15:02:20;;;;;;;;;;;;;;;;;;4820077;29;19980;-85
2022/06/21 15:04:46;;;;;;;;;;;;;;;;;;4812235;29;20343;-84
2022/06/21 15:07:12;;;;;;;;;;;;;;;;;;4823960;29;19928;-84
2022/06/21 15:09:43;;;;;;;;;;;;;;;;;;4819161;29;19936;-84
2022/06/21 15:12:09;;;;;;;;;;;;;;;;;;4819010;29;20439;-84
2022/06/21 15:14:37;;;;;;;;;;;;;;;;;;4810019;29;19924;-84
2022/06/21 15:17:03;;;;;;;;;;;;;;;;;;4816105;29;20212;-84
2022/06/21 15:22:14;;;;;;;;;;;;;;;;;;4817518;29;19934;-84
2022/06/21 15:24:40;;;;;;;;;;;;;;;;;;4819788;29;19928;-83
2022/06/21 15:27:06;;;;;;;;;;;;;;;;;;4826915;29;19932;-83
2022/06/21 15:29:32;;;;;;;;;;;;;;;;;;4822020;29;19929;-84
2022/06/21 15:31:58;;;;;;;;;;;;;;;;;;4811169;29;19928;-84
2022/06/21 15:34:24;;;;;;;;;;;;;;;;;;4823388;29;20348;-84
2022/06/21 15:36:50;;;;;;;;;;;;;;;;;;4806805;29;19990;-83
2022/06/21 15:39:16;;;;;;;;;;;;;;;;;;4809642;29;19940;-84
2022/06/21 15:41:42;;;;;;;;;;;;;;;;;;4821087;29;20015;-83
2022/06/21 15:44:08;;;;;;;;;;;;;;;;;;4826868;29;19924;-83
2022/06/21 15:46:33;;;;;;;;;;;;;;;;;;4827615;29;19976;-83
2022/06/21 15:51:48;;;;;;;;;;;;;;;;;;4825015;29;24104;-83
2022/06/21 15:54:14;;;;;;;;;;;;;;;;;;4830599;29;20392;-84
2022/06/21 15:56:40;;;;;;;;;;;;;;;;;;4824352;29;19928;-84
2022/06/21 15:59:06;;;;;;;;;;;;;;;;;;4826971;29;19928;-84
2022/06/21 16:01:32;;;;;;;;;;;;;;;;;;4821101;29;19939;-84
2022/06/21 16:03:58;;;;;;;;;;;;;;;;;;4828983;29;19928;-83
2022/06/21 16:06:25;;;;;;;;;;;;;;;;;;4820627;29;19978;-84
2022/06/21 16:08:51;;;;;;;;;;;;;;;;;;4822403;29;20019;-84
2022/06/21 16:11:17;;;;;;;;;;;;;;;;;;4829555;29;19932;-84
2022/06/21 16:13:43;;;;;;;;;;;;;;;;;;4812960;29;19941;-84
2022/06/21 16:16:09;;;;;;;;;;;;;;;;;;4826726;29;19972;-83
2022/06/21 16:18:35;;;;;;;;;;;;;;;;;;4823300;29;19943;-83
2022/06/21 16:21:01;;;;;;;;;;;;;;;;;;4825569;29;19932;-83
2022/06/21 16:23:28;;;;;;;;;;;;;;;;;;4831884;29;19939;-83
2022/06/21 16:25:54;;;;;;;;;;;;;;;;;;4828135;29;20321;-84
2022/06/21 16:28:20;;;;;;;;;;;;;;;;;;4829563;29;19961;-84
2022/06/21 16:30:46;;;;;;;;;;;;;;;;;;4826439;29;20292;-84
2022/06/21 16:33:12;;;;;;;;;;;;;;;;;;4814442;29;19935;-83
2022/06/21 16:35:38;;;;;;;;;;;;;;;;;;4821455;29;19932;-83
2022/06/21 16:38:04;;;;;;;;;;;;;;;;;;4822727;29;20266;-83
2022/06/21 16:43:15;;;;;;;;;;;;;;;;;;4821550;29;20523;-83
2022/06/21 16:45:41;;;;;;;;;;;;;;;;;;4819178;29;19931;-83
2022/06/21 16:48:07;;;;;;;;;;;;;;;;;;4820368;29;19942;-83
2022/06/21 16:50:33;;;;;;;;;;;;;;;;;;4821904;29;19928;-83
2022/06/21 16:52:59;;;;;;;;;;;;;;;;;;4810767;29;19932;-83
2022/06/21 16:55:26;;;;;;;;;;;;;;;;;;4824489;29;20660;-83
2022/06/21 16:57:51;;;;;;;;;;;;;;;;;;4816331;29;21533;-83
2022/06/21 17:00:17;;;;;;;;;;;;;;;;;;4835951;29;19932;-83
2022/06/21 17:02:43;;;;;;;;;;;;;;;;;;4818236;29;20016;-83
2022/06/21 17:05:11;;;;;;;;;;;;;;;;;;4828045;29;19932;-83
2022/06/21 17:07:37;;;;;;;;;;;;;;;;;;4818347;29;19932;-83
2022/06/21 17:10:03;;;;;;;;;;;;;;;;;;4801490;29;21728;-81